sensor_id;sensor_type;location;lat;lon;timestamp;P1;durP1;ratioP1;P2;durP2;ratioP2
10603;SDS011;5349;41.554;23.274;2022-12-15T17:00:47;110.45;;;79.00;;
10603;SDS011;5349;41.554;23.274;2022-12-15T17:03:15;69.53;;;46.78;;
10603;SDS011;5349;41.554;23.274;2022-12-15T17:05:43;104.95;;;73.07;;
10603;SDS011;5349;41.554;23.274;2022-12-15T17:08:15;102.95;;;70.18;;
10603;SDS011;5349;41.554;23.274;2022-12-15T17:10:44;127.22;;;88.78;;
10603;SDS011;5349;41.554;23.274;2022-12-15T17:13:14;111.47;;;75.57;;
10603;SDS011;5349;41.554;23.274;2022-12-15T17:15:48;125.70;;;88.88;;
10603;SDS011;5349;41.554;23.274;2022-12-15T17:18:14;119.95;;;85.00;;
10603;SDS011;5349;41.554;23.274;2022-12-15T17:20:41;114.13;;;83.45;;
10603;SDS011;5349;41.554;23.274;2022-12-15T17:23:10;119.57;;;85.82;;
10603;SDS011;5349;41.554;23.274;2022-12-15T17:25:41;124.03;;;85.88;;
10603;SDS011;5349;41.554;23.274;2022-12-15T17:28:11;113.15;;;83.65;;
10603;SDS011;5349;41.554;23.274;2022-12-15T17:30:40;111.60;;;83.28;;
10603;SDS011;5349;41.554;23.274;2022-12-15T17:33:11;121.90;;;88.13;;
10603;SDS011;5349;41.554;23.274;2022-12-15T17:35:42;132.27;;;95.05;;
10603;SDS011;5349;41.554;23.274;2022-12-15T17:38:10;119.82;;;86.85;;
10603;SDS011;5349;41.554;23.274;2022-12-15T17:40:40;119.78;;;86.78;;
10603;SDS011;5349;41.554;23.274;2022-12-15T17:43:09;89.75;;;65.65;;
10603;SDS011;5349;41.554;23.274;2022-12-15T17:45:37;87.63;;;66.65;;
10603;SDS011;5349;41.554;23.274;2022-12-15T17:48:04;104.38;;;74.50;;
10603;SDS011;5349;41.554;23.274;2022-12-15T17:50:33;107.70;;;73.13;;
10603;SDS011;5349;41.554;23.274;2022-12-15T17:53:00;94.33;;;64.20;;
10603;SDS011;5349;41.554;23.274;2022-12-15T17:55:30;92.90;;;65.85;;
10603;SDS011;5349;41.554;23.274;2022-12-15T17:57:57;101.95;;;69.97;;
10603;SDS011;5349;41.554;23.274;2022-12-15T18:00:26;112.18;;;75.43;;
10603;SDS011;5349;41.554;23.274;2022-12-15T18:02:55;113.80;;;77.37;;
10603;SDS011;5349;41.554;23.274;2022-12-15T18:05:23;105.50;;;70.82;;
10603;SDS011;5349;41.554;23.274;2022-12-15T18:07:53;106.50;;;66.17;;
10603;SDS011;5349;41.554;23.274;2022-12-15T18:10:23;119.27;;;78.80;;
10603;SDS011;5349;41.554;23.274;2022-12-15T18:12:54;117.57;;;80.67;;
10603;SDS011;5349;41.554;23.274;2022-12-15T18:15:21;124.80;;;81.33;;
10603;SDS011;5349;41.554;23.274;2022-12-15T18:17:50;111.47;;;80.10;;
10603;SDS011;5349;41.554;23.274;2022-12-15T18:20:17;108.97;;;74.97;;
10603;SDS011;5349;41.554;23.274;2022-12-15T18:22:45;113.45;;;77.93;;
10603;SDS011;5349;41.554;23.274;2022-12-15T18:25:15;129.77;;;84.15;;
10603;SDS011;5349;41.554;23.274;2022-12-15T18:27:45;107.10;;;72.47;;
10603;SDS011;5349;41.554;23.274;2022-12-15T18:30:12;85.50;;;60.93;;
10603;SDS011;5349;41.554;23.274;2022-12-15T18:32:44;96.60;;;65.20;;
10603;SDS011;5349;41.554;23.274;2022-12-15T18:35:16;165.60;;;108.57;;
10603;SDS011;5349;41.554;23.274;2022-12-15T18:37:46;149.03;;;101.83;;
10603;SDS011;5349;41.554;23.274;2022-12-15T18:40:16;131.43;;;88.40;;
10603;SDS011;5349;41.554;23.274;2022-12-15T18:42:44;254.47;;;140.67;;
10603;SDS011;5349;41.554;23.274;2022-12-15T18:45:16;228.27;;;130.90;;
10603;SDS011;5349;41.554;23.274;2022-12-15T18:47:44;220.43;;;121.73;;
10603;SDS011;5349;41.554;23.274;2022-12-15T18:50:12;203.38;;;122.07;;
10603;SDS011;5349;41.554;23.274;2022-12-15T18:52:41;190.77;;;123.65;;
10603;SDS011;5349;41.554;23.274;2022-12-15T18:55:13;167.40;;;113.40;;
10603;SDS011;5349;41.554;23.274;2022-12-15T18:57:44;153.00;;;106.80;;
10603;SDS011;5349;41.554;23.274;2022-12-15T19:00:21;151.73;;;102.70;;
10603;SDS011;5349;41.554;23.274;2022-12-15T19:02:50;153.80;;;103.13;;
10603;SDS011;5349;41.554;23.274;2022-12-15T19:05:18;146.53;;;108.30;;
10603;SDS011;5349;41.554;23.274;2022-12-15T19:08:00;113.13;;;81.47;;
10603;SDS011;5349;41.554;23.274;2022-12-15T19:10:33;100.90;;;69.73;;
10603;SDS011;5349;41.554;23.274;2022-12-15T19:13:01;102.57;;;70.47;;
10603;SDS011;5349;41.554;23.274;2022-12-15T19:15:28;125.53;;;81.33;;
10603;SDS011;5349;41.554;23.274;2022-12-15T19:17:55;116.87;;;82.30;;
10603;SDS011;5349;41.554;23.274;2022-12-15T19:20:39;156.37;;;108.13;;
10603;SDS011;5349;41.554;23.274;2022-12-15T19:23:23;134.97;;;95.93;;
10603;SDS011;5349;41.554;23.274;2022-12-15T19:25:52;146.00;;;101.23;;
10603;SDS011;5349;41.554;23.274;2022-12-15T19:28:19;142.93;;;97.03;;
10603;SDS011;5349;41.554;23.274;2022-12-15T19:30:48;133.60;;;98.23;;
10603;SDS011;5349;41.554;23.274;2022-12-15T19:33:16;125.63;;;90.50;;
10603;SDS011;5349;41.554;23.274;2022-12-15T19:35:44;118.03;;;83.37;;
10603;SDS011;5349;41.554;23.274;2022-12-15T19:38:16;133.10;;;85.83;;
10603;SDS011;5349;41.554;23.274;2022-12-15T19:40:47;118.57;;;84.43;;
10603;SDS011;5349;41.554;23.274;2022-12-15T19:43:18;189.73;;;112.30;;
10603;SDS011;5349;41.554;23.274;2022-12-15T19:45:46;109.90;;;75.43;;
10603;SDS011;5349;41.554;23.274;2022-12-15T19:48:13;106.90;;;77.00;;
10603;SDS011;5349;41.554;23.274;2022-12-15T19:50:40;108.90;;;70.63;;
10603;SDS011;5349;41.554;23.274;2022-12-15T19:53:10;54.37;;;36.87;;
10603;SDS011;5349;41.554;23.274;2022-12-15T19:55:41;59.17;;;43.43;;
10603;SDS011;5349;41.554;23.274;2022-12-15T19:58:24;51.90;;;37.90;;
10603;SDS011;5349;41.554;23.274;2022-12-15T20:00:53;59.37;;;41.97;;
10603;SDS011;5349;41.554;23.274;2022-12-15T20:03:21;73.87;;;52.83;;
10603;SDS011;5349;41.554;23.274;2022-12-15T20:05:49;112.63;;;74.27;;
10603;SDS011;5349;41.554;23.274;2022-12-15T20:08:18;91.30;;;60.47;;
10603;SDS011;5349;41.554;23.274;2022-12-15T20:10:47;76.33;;;50.47;;
10603;SDS011;5349;41.554;23.274;2022-12-15T20:13:14;81.23;;;55.60;;
10603;SDS011;5349;41.554;23.274;2022-12-15T20:15:43;86.77;;;58.10;;
10603;SDS011;5349;41.554;23.274;2022-12-15T20:18:11;91.50;;;59.77;;
10603;SDS011;5349;41.554;23.274;2022-12-15T20:20:38;86.53;;;60.60;;
10603;SDS011;5349;41.554;23.274;2022-12-15T20:23:10;88.30;;;57.47;;
10603;SDS011;5349;41.554;23.274;2022-12-15T20:25:39;78.00;;;52.87;;
10603;SDS011;5349;41.554;23.274;2022-12-15T20:28:09;79.13;;;47.93;;
10603;SDS011;5349;41.554;23.274;2022-12-15T20:30:41;89.70;;;62.30;;
10603;SDS011;5349;41.554;23.274;2022-12-15T20:33:09;94.73;;;62.30;;
10603;SDS011;5349;41.554;23.274;2022-12-15T20:35:38;94.70;;;62.73;;
10603;SDS011;5349;41.554;23.274;2022-12-15T20:38:14;92.97;;;61.07;;
10603;SDS011;5349;41.554;23.274;2022-12-15T20:40:45;87.57;;;55.13;;
10603;SDS011;5349;41.554;23.274;2022-12-15T20:43:12;101.83;;;64.87;;
10603;SDS011;5349;41.554;23.274;2022-12-15T20:45:41;112.83;;;74.97;;
10603;SDS011;5349;41.554;23.274;2022-12-15T20:48:10;91.63;;;60.50;;
10603;SDS011;5349;41.554;23.274;2022-12-15T20:50:39;97.23;;;67.43;;
10603;SDS011;5349;41.554;23.274;2022-12-15T20:53:12;84.07;;;52.60;;
10603;SDS011;5349;41.554;23.274;2022-12-15T20:55:40;78.47;;;54.23;;
10603;SDS011;5349;41.554;23.274;2022-12-15T20:58:07;66.43;;;46.53;;
10603;SDS011;5349;41.554;23.274;2022-12-15T21:00:34;80.87;;;50.03;;
10603;SDS011;5349;41.554;23.274;2022-12-15T21:03:05;191.23;;;107.07;;
10603;SDS011;5349;41.554;23.274;2022-12-15T21:05:46;92.37;;;59.37;;
10603;SDS011;5349;41.554;23.274;2022-12-15T21:08:15;84.77;;;56.00;;
10603;SDS011;5349;41.554;23.274;2022-12-15T21:10:44;96.80;;;62.77;;
10603;SDS011;5349;41.554;23.274;2022-12-15T21:13:13;86.30;;;57.30;;
10603;SDS011;5349;41.554;23.274;2022-12-15T21:15:44;67.90;;;46.73;;
10603;SDS011;5349;41.554;23.274;2022-12-15T21:18:12;67.67;;;48.40;;
10603;SDS011;5349;41.554;23.274;2022-12-15T21:20:42;65.93;;;44.97;;
10603;SDS011;5349;41.554;23.274;2022-12-15T21:23:20;72.17;;;49.60;;
10603;SDS011;5349;41.554;23.274;2022-12-15T21:25:48;75.40;;;50.40;;
10603;SDS011;5349;41.554;23.274;2022-12-15T21:28:16;75.40;;;49.67;;
10603;SDS011;5349;41.554;23.274;2022-12-15T21:30:44;110.80;;;65.37;;
10603;SDS011;5349;41.554;23.274;2022-12-15T21:33:12;76.37;;;47.60;;
10603;SDS011;5349;41.554;23.274;2022-12-15T21:35:39;70.57;;;47.77;;
10603;SDS011;5349;41.554;23.274;2022-12-15T21:38:14;77.83;;;52.27;;
10603;SDS011;5349;41.554;23.274;2022-12-15T21:40:52;60.50;;;39.40;;
10603;SDS011;5349;41.554;23.274;2022-12-15T21:43:21;64.50;;;40.70;;
10603;SDS011;5349;41.554;23.274;2022-12-15T21:45:50;59.83;;;40.40;;
10603;SDS011;5349;41.554;23.274;2022-12-15T21:48:17;63.83;;;41.20;;
10603;SDS011;5349;41.554;23.274;2022-12-15T21:51:03;65.07;;;41.30;;
10603;SDS011;5349;41.554;23.274;2022-12-15T21:53:30;60.43;;;40.73;;
10603;SDS011;5349;41.554;23.274;2022-12-15T21:55:57;57.03;;;38.43;;
10603;SDS011;5349;41.554;23.274;2022-12-15T21:58:25;107.30;;;64.93;;
10603;SDS011;5349;41.554;23.274;2022-12-15T22:00:52;52.53;;;35.43;;
10603;SDS011;5349;41.554;23.274;2022-12-15T22:03:19;46.43;;;29.67;;
10603;SDS011;5349;41.554;23.274;2022-12-15T22:05:46;71.87;;;48.20;;
10603;SDS011;5349;41.554;23.274;2022-12-15T22:08:15;68.63;;;44.43;;
10603;SDS011;5349;41.554;23.274;2022-12-15T22:10:43;53.00;;;34.93;;
10603;SDS011;5349;41.554;23.274;2022-12-15T22:13:16;49.27;;;34.20;;
10603;SDS011;5349;41.554;23.274;2022-12-15T22:15:44;49.87;;;30.33;;
10603;SDS011;5349;41.554;23.274;2022-12-15T22:18:12;47.77;;;28.57;;
10603;SDS011;5349;41.554;23.274;2022-12-15T22:20:44;55.63;;;34.20;;
10603;SDS011;5349;41.554;23.274;2022-12-15T22:23:15;46.77;;;29.07;;
10603;SDS011;5349;41.554;23.274;2022-12-15T22:25:43;44.63;;;26.20;;
10603;SDS011;5349;41.554;23.274;2022-12-15T22:28:16;46.97;;;29.97;;
10603;SDS011;5349;41.554;23.274;2022-12-15T22:30:56;41.90;;;27.77;;
10603;SDS011;5349;41.554;23.274;2022-12-15T22:33:23;50.27;;;31.97;;
10603;SDS011;5349;41.554;23.274;2022-12-15T22:35:51;48.07;;;32.27;;
10603;SDS011;5349;41.554;23.274;2022-12-15T22:38:21;40.57;;;26.43;;
10603;SDS011;5349;41.554;23.274;2022-12-15T22:40:50;39.57;;;26.40;;
10603;SDS011;5349;41.554;23.274;2022-12-15T22:43:19;46.90;;;26.57;;
10603;SDS011;5349;41.554;23.274;2022-12-15T22:45:50;51.80;;;29.40;;
10603;SDS011;5349;41.554;23.274;2022-12-15T22:48:20;49.30;;;29.33;;
10603;SDS011;5349;41.554;23.274;2022-12-15T22:50:49;35.63;;;23.07;;
10603;SDS011;5349;41.554;23.274;2022-12-15T22:53:16;58.33;;;30.10;;
10603;SDS011;5349;41.554;23.274;2022-12-15T22:55:46;43.50;;;24.83;;
10603;SDS011;5349;41.554;23.274;2022-12-15T22:58:16;37.57;;;25.67;;
10603;SDS011;5349;41.554;23.274;2022-12-15T23:00:51;39.97;;;26.00;;
10603;SDS011;5349;41.554;23.274;2022-12-15T23:03:20;38.63;;;24.93;;
10603;SDS011;5349;41.554;23.274;2022-12-15T23:05:47;37.03;;;25.03;;
10603;SDS011;5349;41.554;23.274;2022-12-15T23:08:14;37.07;;;25.47;;
10603;SDS011;5349;41.554;23.274;2022-12-15T23:10:41;68.30;;;32.93;;
10603;SDS011;5349;41.554;23.274;2022-12-15T23:13:26;50.23;;;26.97;;
10603;SDS011;5349;41.554;23.274;2022-12-15T23:15:53;39.03;;;25.40;;
10603;SDS011;5349;41.554;23.274;2022-12-15T23:18:38;40.03;;;25.57;;
10603;SDS011;5349;41.554;23.274;2022-12-15T23:21:04;37.00;;;24.93;;
10603;SDS011;5349;41.554;23.274;2022-12-15T23:23:33;96.33;;;43.83;;
10603;SDS011;5349;41.554;23.274;2022-12-15T23:26:00;42.07;;;25.70;;
10603;SDS011;5349;41.554;23.274;2022-12-15T23:28:29;39.23;;;26.00;;
10603;SDS011;5349;41.554;23.274;2022-12-15T23:30:56;42.50;;;28.23;;
10603;SDS011;5349;41.554;23.274;2022-12-15T23:33:22;84.83;;;41.67;;
10603;SDS011;5349;41.554;23.274;2022-12-15T23:35:51;45.43;;;29.03;;
10603;SDS011;5349;41.554;23.274;2022-12-15T23:38:19;46.93;;;29.67;;
10603;SDS011;5349;41.554;23.274;2022-12-15T23:40:46;84.23;;;39.93;;
10603;SDS011;5349;41.554;23.274;2022-12-15T23:43:14;50.87;;;28.33;;
10603;SDS011;5349;41.554;23.274;2022-12-15T23:45:44;36.13;;;23.80;;
10603;SDS011;5349;41.554;23.274;2022-12-15T23:48:11;32.93;;;21.63;;
10603;SDS011;5349;41.554;23.274;2022-12-15T23:50:39;31.00;;;20.43;;
10603;SDS011;5349;41.554;23.274;2022-12-15T23:53:06;33.20;;;21.87;;
10603;SDS011;5349;41.554;23.274;2022-12-15T23:55:34;40.43;;;21.80;;
10603;SDS011;5349;41.554;23.274;2022-12-15T23:58:01;32.23;;;20.97;;
